Sunol, California
Current Conditions -  °F | °C
As of 12:53 PM on Monday 22 Dec 2014 (Local Time) from KLVK Reporting Station
Scattered Clouds Scattered Clouds  
Wind Chill: 64°   Ceiling: Unl
Heat Index: 64°   Visibility: 10mi
Dew Point: 55°   Wind: 0mph
Humidity: 72%   Direction: NA
Pressure: 30.2"   Gusts: NA
Location:  37.6°N, 121.9°W
Report Text: KLVK 222053Z 00000KT 10SM SCT015 18/13 A3020 RMK AO2 SLP226 T01780128 58029
Loading
Personal Weather Stations






























Interactive Weather Map New forecast layout! Learn more

10-Day Weather Forecast

Advertisements
Track Severe Weather on mobile